sensor_id;sensor_type;location;lat;lon;timestamp;temperature;humidity
13488;DHT22;6816;48.506;9.050;2022-07-23T00:01:26;23.50;90.10
13488;DHT22;6816;48.506;9.050;2022-07-23T00:04:27;23.40;90.30
13488;DHT22;6816;48.506;9.050;2022-07-23T00:07:28;23.40;90.40
13488;DHT22;6816;48.506;9.050;2022-07-23T00:10:29;23.40;90.40
13488;DHT22;6816;48.506;9.050;2022-07-23T00:13:29;23.40;90.30
13488;DHT22;6816;48.506;9.050;2022-07-23T00:16:30;23.30;90.40
13488;DHT22;6816;48.506;9.050;2022-07-23T00:19:31;23.30;90.50
13488;DHT22;6816;48.506;9.050;2022-07-23T00:22:31;23.30;90.60
13488;DHT22;6816;48.506;9.050;2022-07-23T00:25:32;23.30;90.70
13488;DHT22;6816;48.506;9.050;2022-07-23T00:28:33;23.30;90.90
13488;DHT22;6816;48.506;9.050;2022-07-23T00:31:34;23.20;91.10
13488;DHT22;6816;48.506;9.050;2022-07-23T00:34:34;23.20;91.20
13488;DHT22;6816;48.506;9.050;2022-07-23T00:37:35;23.20;91.30
13488;DHT22;6816;48.506;9.050;2022-07-23T00:40:36;23.20;91.50
13488;DHT22;6816;48.506;9.050;2022-07-23T00:43:37;23.20;91.60
13488;DHT22;6816;48.506;9.050;2022-07-23T00:46:38;23.20;91.70
13488;DHT22;6816;48.506;9.050;2022-07-23T00:49:38;23.30;91.90
13488;DHT22;6816;48.506;9.050;2022-07-23T00:52:40;23.20;92.00
13488;DHT22;6816;48.506;9.050;2022-07-23T00:55:41;23.20;92.10
13488;DHT22;6816;48.506;9.050;2022-07-23T00:58:42;23.20;92.10
13488;DHT22;6816;48.506;9.050;2022-07-23T01:01:43;23.20;92.00
13488;DHT22;6816;48.506;9.050;2022-07-23T01:04:45;23.20;92.00
13488;DHT22;6816;48.506;9.050;2022-07-23T01:07:46;23.20;92.10
13488;DHT22;6816;48.506;9.050;2022-07-23T01:10:48;23.10;92.20
13488;DHT22;6816;48.506;9.050;2022-07-23T01:14:16;23.10;92.30
13488;DHT22;6816;48.506;9.050;2022-07-23T01:17:17;23.10;92.20
13488;DHT22;6816;48.506;9.050;2022-07-23T01:20:17;23.10;92.30
13488;DHT22;6816;48.506;9.050;2022-07-23T01:23:18;23.10;92.40
13488;DHT22;6816;48.506;9.050;2022-07-23T01:26:19;23.10;92.40
13488;DHT22;6816;48.506;9.050;2022-07-23T01:29:20;23.00;92.40
13488;DHT22;6816;48.506;9.050;2022-07-23T01:32:23;23.00;92.50
13488;DHT22;6816;48.506;9.050;2022-07-23T01:35:23;23.00;92.80
13488;DHT22;6816;48.506;9.050;2022-07-23T01:38:24;23.00;92.60
13488;DHT22;6816;48.506;9.050;2022-07-23T01:41:25;23.00;92.80
13488;DHT22;6816;48.506;9.050;2022-07-23T01:44:25;22.90;92.80
13488;DHT22;6816;48.506;9.050;2022-07-23T01:47:26;22.90;93.00
13488;DHT22;6816;48.506;9.050;2022-07-23T01:50:26;22.90;93.00
13488;DHT22;6816;48.506;9.050;2022-07-23T01:53:27;22.90;93.10
13488;DHT22;6816;48.506;9.050;2022-07-23T01:56:28;22.90;93.30
13488;DHT22;6816;48.506;9.050;2022-07-23T01:59:28;22.80;93.40
13488;DHT22;6816;48.506;9.050;2022-07-23T02:02:29;22.80;93.40
13488;DHT22;6816;48.506;9.050;2022-07-23T02:05:30;22.80;93.50
13488;DHT22;6816;48.506;9.050;2022-07-23T02:08:32;22.80;93.60
13488;DHT22;6816;48.506;9.050;2022-07-23T02:11:33;22.80;93.50
13488;DHT22;6816;48.506;9.050;2022-07-23T02:14:33;22.80;93.50
13488;DHT22;6816;48.506;9.050;2022-07-23T02:17:34;22.80;93.30
13488;DHT22;6816;48.506;9.050;2022-07-23T02:20:35;22.70;93.00
13488;DHT22;6816;48.506;9.050;2022-07-23T02:23:39;22.70;93.10
13488;DHT22;6816;48.506;9.050;2022-07-23T02:26:39;22.70;93.20
13488;DHT22;6816;48.506;9.050;2022-07-23T02:29:40;22.60;93.10
13488;DHT22;6816;48.506;9.050;2022-07-23T02:32:41;22.60;92.90
13488;DHT22;6816;48.506;9.050;2022-07-23T02:35:41;22.60;92.90
13488;DHT22;6816;48.506;9.050;2022-07-23T02:38:42;22.50;92.80
13488;DHT22;6816;48.506;9.050;2022-07-23T02:41:43;22.50;92.80
13488;DHT22;6816;48.506;9.050;2022-07-23T02:44:44;22.50;92.90
13488;DHT22;6816;48.506;9.050;2022-07-23T02:47:44;22.40;93.00
13488;DHT22;6816;48.506;9.050;2022-07-23T02:50:45;22.40;92.90
13488;DHT22;6816;48.506;9.050;2022-07-23T02:53:46;22.40;92.80
13488;DHT22;6816;48.506;9.050;2022-07-23T02:56:46;22.40;93.00
13488;DHT22;6816;48.506;9.050;2022-07-23T02:59:47;22.30;93.00
13488;DHT22;6816;48.506;9.050;2022-07-23T03:02:47;22.30;92.90
13488;DHT22;6816;48.506;9.050;2022-07-23T03:05:48;22.30;92.90
13488;DHT22;6816;48.506;9.050;2022-07-23T03:08:49;22.30;92.90
13488;DHT22;6816;48.506;9.050;2022-07-23T03:11:50;22.20;93.00
13488;DHT22;6816;48.506;9.050;2022-07-23T03:14:50;22.20;92.90
13488;DHT22;6816;48.506;9.050;2022-07-23T03:17:51;22.20;93.00
13488;DHT22;6816;48.506;9.050;2022-07-23T03:20:51;22.20;93.10
13488;DHT22;6816;48.506;9.050;2022-07-23T03:23:52;22.20;93.20
13488;DHT22;6816;48.506;9.050;2022-07-23T03:26:53;22.20;93.10
13488;DHT22;6816;48.506;9.050;2022-07-23T03:29:54;22.20;93.00
13488;DHT22;6816;48.506;9.050;2022-07-23T03:32:55;22.20;93.00
13488;DHT22;6816;48.506;9.050;2022-07-23T03:35:56;22.20;93.00
13488;DHT22;6816;48.506;9.050;2022-07-23T03:38:57;22.10;93.00
13488;DHT22;6816;48.506;9.050;2022-07-23T03:41:57;22.10;93.00
13488;DHT22;6816;48.506;9.050;2022-07-23T03:44:58;22.10;93.10
13488;DHT22;6816;48.506;9.050;2022-07-23T03:47:59;22.00;93.10
13488;DHT22;6816;48.506;9.050;2022-07-23T03:51:00;22.00;93.30
13488;DHT22;6816;48.506;9.050;2022-07-23T03:54:00;21.90;93.40
13488;DHT22;6816;48.506;9.050;2022-07-23T03:57:01;21.90;93.60
13488;DHT22;6816;48.506;9.050;2022-07-23T04:00:04;21.90;93.80
13488;DHT22;6816;48.506;9.050;2022-07-23T04:03:05;21.90;93.90
13488;DHT22;6816;48.506;9.050;2022-07-23T04:06:06;21.80;94.00
13488;DHT22;6816;48.506;9.050;2022-07-23T04:09:07;21.90;94.20
13488;DHT22;6816;48.506;9.050;2022-07-23T04:12:08;21.80;94.30
13488;DHT22;6816;48.506;9.050;2022-07-23T04:15:09;21.90;94.40
13488;DHT22;6816;48.506;9.050;2022-07-23T04:18:09;21.90;94.50
13488;DHT22;6816;48.506;9.050;2022-07-23T04:21:10;21.90;94.40
13488;DHT22;6816;48.506;9.050;2022-07-23T04:24:11;21.90;94.30
13488;DHT22;6816;48.506;9.050;2022-07-23T04:27:11;21.80;94.30
13488;DHT22;6816;48.506;9.050;2022-07-23T04:30:12;21.80;94.30
13488;DHT22;6816;48.506;9.050;2022-07-23T04:33:13;21.80;94.40
13488;DHT22;6816;48.506;9.050;2022-07-23T04:36:13;21.80;94.50
13488;DHT22;6816;48.506;9.050;2022-07-23T04:39:14;21.80;95.00
13488;DHT22;6816;48.506;9.050;2022-07-23T04:42:14;21.80;94.80
13488;DHT22;6816;48.506;9.050;2022-07-23T04:45:15;21.80;95.10
13488;DHT22;6816;48.506;9.050;2022-07-23T04:48:16;21.90;95.20
13488;DHT22;6816;48.506;9.050;2022-07-23T04:51:16;21.90;95.60
13488;DHT22;6816;48.506;9.050;2022-07-23T04:54:17;22.00;95.90
13488;DHT22;6816;48.506;9.050;2022-07-23T04:57:18;22.10;96.00
13488;DHT22;6816;48.506;9.050;2022-07-23T05:00:18;22.10;96.00
13488;DHT22;6816;48.506;9.050;2022-07-23T05:03:19;22.20;96.10
13488;DHT22;6816;48.506;9.050;2022-07-23T05:06:19;22.20;96.10
13488;DHT22;6816;48.506;9.050;2022-07-23T05:09:20;22.30;96.10
13488;DHT22;6816;48.506;9.050;2022-07-23T05:12:21;22.30;96.20
13488;DHT22;6816;48.506;9.050;2022-07-23T05:15:22;22.40;96.30
13488;DHT22;6816;48.506;9.050;2022-07-23T05:18:22;22.40;96.20
13488;DHT22;6816;48.506;9.050;2022-07-23T05:21:23;22.50;96.20
13488;DHT22;6816;48.506;9.050;2022-07-23T05:24:24;22.50;95.80
13488;DHT22;6816;48.506;9.050;2022-07-23T05:27:24;22.50;95.80
13488;DHT22;6816;48.506;9.050;2022-07-23T05:30:25;22.60;95.80
13488;DHT22;6816;48.506;9.050;2022-07-23T05:33:26;22.50;95.70
13488;DHT22;6816;48.506;9.050;2022-07-23T05:36:26;22.60;95.70
13488;DHT22;6816;48.506;9.050;2022-07-23T05:39:27;22.60;95.60
13488;DHT22;6816;48.506;9.050;2022-07-23T05:42:27;22.60;95.80
13488;DHT22;6816;48.506;9.050;2022-07-23T05:45:28;22.60;96.20
13488;DHT22;6816;48.506;9.050;2022-07-23T05:48:29;22.70;96.70
13488;DHT22;6816;48.506;9.050;2022-07-23T05:51:29;22.90;96.90
13488;DHT22;6816;48.506;9.050;2022-07-23T05:54:30;23.10;97.00
13488;DHT22;6816;48.506;9.050;2022-07-23T05:57:31;23.30;97.00
13488;DHT22;6816;48.506;9.050;2022-07-23T06:00:32;23.50;96.90
13488;DHT22;6816;48.506;9.050;2022-07-23T06:03:32;23.60;96.60
13488;DHT22;6816;48.506;9.050;2022-07-23T06:06:33;23.90;96.30
13488;DHT22;6816;48.506;9.050;2022-07-23T06:09:34;24.10;96.00
13488;DHT22;6816;48.506;9.050;2022-07-23T06:12:35;24.30;95.90
13488;DHT22;6816;48.506;9.050;2022-07-23T06:15:36;24.50;95.40
13488;DHT22;6816;48.506;9.050;2022-07-23T06:18:36;24.70;95.00
13488;DHT22;6816;48.506;9.050;2022-07-23T06:21:37;24.90;94.60
13488;DHT22;6816;48.506;9.050;2022-07-23T06:24:38;25.10;94.60
13488;DHT22;6816;48.506;9.050;2022-07-23T06:27:38;25.20;94.40
13488;DHT22;6816;48.506;9.050;2022-07-23T06:30:39;25.40;94.20
13488;DHT22;6816;48.506;9.050;2022-07-23T06:33:40;25.50;94.00
13488;DHT22;6816;48.506;9.050;2022-07-23T06:36:40;25.70;93.50
13488;DHT22;6816;48.506;9.050;2022-07-23T06:39:41;25.80;93.20
13488;DHT22;6816;48.506;9.050;2022-07-23T06:42:42;26.00;92.60
13488;DHT22;6816;48.506;9.050;2022-07-23T06:45:42;26.10;92.40
13488;DHT22;6816;48.506;9.050;2022-07-23T06:48:43;26.20;92.20
13488;DHT22;6816;48.506;9.050;2022-07-23T06:51:44;26.40;91.60
13488;DHT22;6816;48.506;9.050;2022-07-23T06:54:44;26.60;91.30
13488;DHT22;6816;48.506;9.050;2022-07-23T06:57:45;26.70;91.20
13488;DHT22;6816;48.506;9.050;2022-07-23T07:00:46;26.80;90.40
13488;DHT22;6816;48.506;9.050;2022-07-23T07:03:47;26.90;90.20
13488;DHT22;6816;48.506;9.050;2022-07-23T07:06:48;27.00;90.70
13488;DHT22;6816;48.506;9.050;2022-07-23T07:09:49;27.10;89.50
13488;DHT22;6816;48.506;9.050;2022-07-23T07:12:49;27.20;88.50
13488;DHT22;6816;48.506;9.050;2022-07-23T07:15:50;27.30;89.00
13488;DHT22;6816;48.506;9.050;2022-07-23T07:18:51;27.40;88.80
13488;DHT22;6816;48.506;9.050;2022-07-23T07:21:51;27.50;88.30
13488;DHT22;6816;48.506;9.050;2022-07-23T07:24:52;27.50;87.60
13488;DHT22;6816;48.506;9.050;2022-07-23T07:27:53;27.60;86.30
13488;DHT22;6816;48.506;9.050;2022-07-23T07:30:53;27.60;85.00
13488;DHT22;6816;48.506;9.050;2022-07-23T07:33:54;27.60;84.70
13488;DHT22;6816;48.506;9.050;2022-07-23T07:36:57;27.60;84.10
13488;DHT22;6816;48.506;9.050;2022-07-23T07:39:57;27.60;83.90
13488;DHT22;6816;48.506;9.050;2022-07-23T07:42:58;27.60;84.60
13488;DHT22;6816;48.506;9.050;2022-07-23T07:45:59;27.70;84.60
13488;DHT22;6816;48.506;9.050;2022-07-23T07:48:59;27.80;83.80
13488;DHT22;6816;48.506;9.050;2022-07-23T07:52:00;27.80;84.00
13488;DHT22;6816;48.506;9.050;2022-07-23T07:55:01;27.90;82.70
13488;DHT22;6816;48.506;9.050;2022-07-23T07:58:02;27.90;82.10
13488;DHT22;6816;48.506;9.050;2022-07-23T08:01:02;27.90;82.40
13488;DHT22;6816;48.506;9.050;2022-07-23T08:04:03;27.90;82.00
13488;DHT22;6816;48.506;9.050;2022-07-23T08:07:04;27.90;81.70
13488;DHT22;6816;48.506;9.050;2022-07-23T08:10:06;27.90;80.70
13488;DHT22;6816;48.506;9.050;2022-07-23T08:13:07;27.90;79.30
13488;DHT22;6816;48.506;9.050;2022-07-23T08:16:08;27.90;79.90
13488;DHT22;6816;48.506;9.050;2022-07-23T08:19:09;28.00;80.00
13488;DHT22;6816;48.506;9.050;2022-07-23T08:22:09;28.00;79.80
13488;DHT22;6816;48.506;9.050;2022-07-23T08:25:10;28.00;79.50
13488;DHT22;6816;48.506;9.050;2022-07-23T08:28:12;28.00;78.70
13488;DHT22;6816;48.506;9.050;2022-07-23T08:31:13;28.10;78.00
13488;DHT22;6816;48.506;9.050;2022-07-23T08:34:15;28.20;78.40
13488;DHT22;6816;48.506;9.050;2022-07-23T08:37:16;28.30;78.30
13488;DHT22;6816;48.506;9.050;2022-07-23T08:40:17;28.40;78.70
13488;DHT22;6816;48.506;9.050;2022-07-23T08:43:22;28.50;78.30
13488;DHT22;6816;48.506;9.050;2022-07-23T08:46:23;28.50;77.20
13488;DHT22;6816;48.506;9.050;2022-07-23T08:49:24;28.50;76.90
13488;DHT22;6816;48.506;9.050;2022-07-23T08:52:26;28.60;76.40
13488;DHT22;6816;48.506;9.050;2022-07-23T08:55:28;28.50;75.50
13488;DHT22;6816;48.506;9.050;2022-07-23T08:58:30;28.60;75.60
13488;DHT22;6816;48.506;9.050;2022-07-23T09:01:31;28.60;75.70
13488;DHT22;6816;48.506;9.050;2022-07-23T09:04:32;28.70;75.80
13488;DHT22;6816;48.506;9.050;2022-07-23T09:07:32;28.70;75.40
13488;DHT22;6816;48.506;9.050;2022-07-23T09:13:54;29.00;72.10
13488;DHT22;6816;48.506;9.050;2022-07-23T09:16:55;29.10;75.90
13488;DHT22;6816;48.506;9.050;2022-07-23T09:23:10;29.30;71.30
13488;DHT22;6816;48.506;9.050;2022-07-23T09:26:44;29.40;73.80
13488;DHT22;6816;48.506;9.050;2022-07-23T09:29:56;29.40;70.30
13488;DHT22;6816;48.506;9.050;2022-07-23T09:33:11;29.50;71.80
13488;DHT22;6816;48.506;9.050;2022-07-23T09:36:11;29.60;70.70
13488;DHT22;6816;48.506;9.050;2022-07-23T09:39:15;29.70;72.70
13488;DHT22;6816;48.506;9.050;2022-07-23T09:42:23;29.70;72.50
13488;DHT22;6816;48.506;9.050;2022-07-23T09:45:24;29.70;72.20
13488;DHT22;6816;48.506;9.050;2022-07-23T09:48:25;29.80;72.30
13488;DHT22;6816;48.506;9.050;2022-07-23T09:51:27;29.80;72.80
13488;DHT22;6816;48.506;9.050;2022-07-23T09:54:38;29.80;72.10
13488;DHT22;6816;48.506;9.050;2022-07-23T09:57:44;29.90;71.70
13488;DHT22;6816;48.506;9.050;2022-07-23T10:00:50;29.90;70.40
13488;DHT22;6816;48.506;9.050;2022-07-23T10:03:52;29.90;70.70
13488;DHT22;6816;48.506;9.050;2022-07-23T10:06:55;29.90;70.90
13488;DHT22;6816;48.506;9.050;2022-07-23T10:09:57;30.00;71.70
13488;DHT22;6816;48.506;9.050;2022-07-23T10:12:59;30.00;71.80
13488;DHT22;6816;48.506;9.050;2022-07-23T10:16:19;30.10;71.50
13488;DHT22;6816;48.506;9.050;2022-07-23T10:19:20;30.20;71.90
13488;DHT22;6816;48.506;9.050;2022-07-23T10:22:38;30.30;70.40
13488;DHT22;6816;48.506;9.050;2022-07-23T10:32:05;30.40;69.00
13488;DHT22;6816;48.506;9.050;2022-07-23T10:39:06;30.50;66.90
13488;DHT22;6816;48.506;9.050;2022-07-23T10:42:14;30.40;66.40
13488;DHT22;6816;48.506;9.050;2022-07-23T10:45:28;30.30;66.50
13488;DHT22;6816;48.506;9.050;2022-07-23T10:48:29;30.30;66.40
13488;DHT22;6816;48.506;9.050;2022-07-23T10:51:30;30.20;68.50
13488;DHT22;6816;48.506;9.050;2022-07-23T10:54:31;30.20;69.10
13488;DHT22;6816;48.506;9.050;2022-07-23T10:57:47;30.30;68.30
13488;DHT22;6816;48.506;9.050;2022-07-23T11:00:49;30.30;66.00
13488;DHT22;6816;48.506;9.050;2022-07-23T11:03:56;30.40;68.10
13488;DHT22;6816;48.506;9.050;2022-07-23T11:09:59;30.50;67.60
13488;DHT22;6816;48.506;9.050;2022-07-23T11:16:29;30.50;65.50
13488;DHT22;6816;48.506;9.050;2022-07-23T11:19:30;30.50;66.60
13488;DHT22;6816;48.506;9.050;2022-07-23T11:25:44;30.60;64.50
13488;DHT22;6816;48.506;9.050;2022-07-23T11:28:46;30.60;65.70
13488;DHT22;6816;48.506;9.050;2022-07-23T11:32:05;30.70;65.30
13488;DHT22;6816;48.506;9.050;2022-07-23T11:35:24;30.70;63.60
13488;DHT22;6816;48.506;9.050;2022-07-23T11:38:25;30.80;63.40
13488;DHT22;6816;48.506;9.050;2022-07-23T11:41:26;30.90;65.00
13488;DHT22;6816;48.506;9.050;2022-07-23T11:44:32;30.90;63.80
13488;DHT22;6816;48.506;9.050;2022-07-23T11:47:33;30.90;64.40
13488;DHT22;6816;48.506;9.050;2022-07-23T11:50:34;30.90;64.70
13488;DHT22;6816;48.506;9.050;2022-07-23T11:53:35;30.90;64.70
13488;DHT22;6816;48.506;9.050;2022-07-23T11:56:36;30.90;64.10
13488;DHT22;6816;48.506;9.050;2022-07-23T11:59:37;31.00;64.10
13488;DHT22;6816;48.506;9.050;2022-07-23T12:02:46;31.00;64.20
13488;DHT22;6816;48.506;9.050;2022-07-23T12:05:47;31.00;61.70
13488;DHT22;6816;48.506;9.050;2022-07-23T12:08:48;31.00;63.20
13488;DHT22;6816;48.506;9.050;2022-07-23T12:11:59;31.00;63.00
13488;DHT22;6816;48.506;9.050;2022-07-23T12:15:00;31.00;60.90
13488;DHT22;6816;48.506;9.050;2022-07-23T12:18:01;31.10;62.60
13488;DHT22;6816;48.506;9.050;2022-07-23T12:21:04;31.10;62.00
13488;DHT22;6816;48.506;9.050;2022-07-23T12:24:06;31.20;61.50
13488;DHT22;6816;48.506;9.050;2022-07-23T12:27:11;31.20;61.40
13488;DHT22;6816;48.506;9.050;2022-07-23T12:30:18;31.30;61.20
13488;DHT22;6816;48.506;9.050;2022-07-23T12:33:39;31.30;60.00
13488;DHT22;6816;48.506;9.050;2022-07-23T12:36:40;31.40;59.10
13488;DHT22;6816;48.506;9.050;2022-07-23T12:39:41;31.50;61.70
13488;DHT22;6816;48.506;9.050;2022-07-23T12:42:42;31.60;61.10
13488;DHT22;6816;48.506;9.050;2022-07-23T12:45:48;31.70;60.80
13488;DHT22;6816;48.506;9.050;2022-07-23T12:51:50;31.80;60.60
13488;DHT22;6816;48.506;9.050;2022-07-23T12:54:50;31.80;60.10
13488;DHT22;6816;48.506;9.050;2022-07-23T12:57:51;31.80;60.00
13488;DHT22;6816;48.506;9.050;2022-07-23T13:01:01;31.80;59.40
13488;DHT22;6816;48.506;9.050;2022-07-23T13:07:12;31.80;59.60
13488;DHT22;6816;48.506;9.050;2022-07-23T13:10:12;31.90;59.80
13488;DHT22;6816;48.506;9.050;2022-07-23T13:13:14;31.90;59.40
13488;DHT22;6816;48.506;9.050;2022-07-23T13:16:16;31.90;59.30
13488;DHT22;6816;48.506;9.050;2022-07-23T13:19:17;31.80;59.10
13488;DHT22;6816;48.506;9.050;2022-07-23T13:22:18;31.90;58.60
13488;DHT22;6816;48.506;9.050;2022-07-23T13:25:19;31.80;58.60
13488;DHT22;6816;48.506;9.050;2022-07-23T13:28:20;31.80;58.60
13488;DHT22;6816;48.506;9.050;2022-07-23T13:31:21;31.80;57.80
13488;DHT22;6816;48.506;9.050;2022-07-23T13:34:22;31.90;58.40
13488;DHT22;6816;48.506;9.050;2022-07-23T13:37:23;31.90;58.10
13488;DHT22;6816;48.506;9.050;2022-07-23T13:40:23;32.00;58.10
13488;DHT22;6816;48.506;9.050;2022-07-23T13:43:25;32.00;58.20
13488;DHT22;6816;48.506;9.050;2022-07-23T13:46:25;32.00;58.30
13488;DHT22;6816;48.506;9.050;2022-07-23T13:49:26;31.90;58.40
13488;DHT22;6816;48.506;9.050;2022-07-23T13:52:27;31.90;57.90
13488;DHT22;6816;48.506;9.050;2022-07-23T13:55:28;31.80;58.00
13488;DHT22;6816;48.506;9.050;2022-07-23T13:58:28;31.70;58.10
13488;DHT22;6816;48.506;9.050;2022-07-23T14:01:29;31.60;58.40
13488;DHT22;6816;48.506;9.050;2022-07-23T14:04:30;31.60;58.80
13488;DHT22;6816;48.506;9.050;2022-07-23T14:07:31;31.50;58.50
13488;DHT22;6816;48.506;9.050;2022-07-23T14:10:31;31.50;58.60
13488;DHT22;6816;48.506;9.050;2022-07-23T14:13:32;31.40;58.90
13488;DHT22;6816;48.506;9.050;2022-07-23T14:16:33;31.30;58.70
13488;DHT22;6816;48.506;9.050;2022-07-23T14:19:34;31.30;58.00
13488;DHT22;6816;48.506;9.050;2022-07-23T14:22:35;31.20;58.30
13488;DHT22;6816;48.506;9.050;2022-07-23T14:25:35;31.10;58.40
13488;DHT22;6816;48.506;9.050;2022-07-23T14:28:36;31.00;58.30
13488;DHT22;6816;48.506;9.050;2022-07-23T14:31:37;30.90;58.60
13488;DHT22;6816;48.506;9.050;2022-07-23T14:34:37;30.80;59.30
13488;DHT22;6816;48.506;9.050;2022-07-23T14:37:39;30.80;59.70
13488;DHT22;6816;48.506;9.050;2022-07-23T14:40:41;30.80;59.70
13488;DHT22;6816;48.506;9.050;2022-07-23T14:43:42;31.00;60.10
13488;DHT22;6816;48.506;9.050;2022-07-23T14:46:42;31.20;59.90
13488;DHT22;6816;48.506;9.050;2022-07-23T14:49:43;31.40;59.70
13488;DHT22;6816;48.506;9.050;2022-07-23T14:52:44;31.70;59.60
13488;DHT22;6816;48.506;9.050;2022-07-23T14:55:44;32.10;58.60
13488;DHT22;6816;48.506;9.050;2022-07-23T14:58:45;32.30;58.20
13488;DHT22;6816;48.506;9.050;2022-07-23T15:01:46;32.60;57.60
13488;DHT22;6816;48.506;9.050;2022-07-23T15:04:47;32.80;57.80
13488;DHT22;6816;48.506;9.050;2022-07-23T15:07:47;33.00;56.90
13488;DHT22;6816;48.506;9.050;2022-07-23T15:10:48;33.10;56.70
13488;DHT22;6816;48.506;9.050;2022-07-23T15:13:49;33.20;56.10
13488;DHT22;6816;48.506;9.050;2022-07-23T15:16:49;33.40;55.60
13488;DHT22;6816;48.506;9.050;2022-07-23T15:19:51;33.40;55.00
13488;DHT22;6816;48.506;9.050;2022-07-23T15:22:51;33.50;55.00
13488;DHT22;6816;48.506;9.050;2022-07-23T15:25:54;33.60;55.00
13488;DHT22;6816;48.506;9.050;2022-07-23T15:28:56;33.70;54.60
13488;DHT22;6816;48.506;9.050;2022-07-23T15:31:57;33.80;54.40
13488;DHT22;6816;48.506;9.050;2022-07-23T15:34:57;33.80;53.90
13488;DHT22;6816;48.506;9.050;2022-07-23T15:37:58;33.90;54.10
13488;DHT22;6816;48.506;9.050;2022-07-23T15:40:59;34.00;53.60
13488;DHT22;6816;48.506;9.050;2022-07-23T15:43:59;34.00;53.90
13488;DHT22;6816;48.506;9.050;2022-07-23T15:47:01;34.00;53.10
13488;DHT22;6816;48.506;9.050;2022-07-23T15:50:02;33.90;52.60
13488;DHT22;6816;48.506;9.050;2022-07-23T15:53:02;33.70;52.70
13488;DHT22;6816;48.506;9.050;2022-07-23T15:56:05;33.50;52.80
13488;DHT22;6816;48.506;9.050;2022-07-23T15:59:07;33.30;52.70
13488;DHT22;6816;48.506;9.050;2022-07-23T16:02:08;33.10;52.60
13488;DHT22;6816;48.506;9.050;2022-07-23T16:05:09;33.00;52.90
13488;DHT22;6816;48.506;9.050;2022-07-23T16:08:10;32.80;53.50
13488;DHT22;6816;48.506;9.050;2022-07-23T16:11:11;32.70;54.10
13488;DHT22;6816;48.506;9.050;2022-07-23T16:14:11;32.60;54.20
13488;DHT22;6816;48.506;9.050;2022-07-23T16:17:12;32.50;54.00
13488;DHT22;6816;48.506;9.050;2022-07-23T16:20:13;32.40;54.10
13488;DHT22;6816;48.506;9.050;2022-07-23T16:23:14;32.30;54.40
13488;DHT22;6816;48.506;9.050;2022-07-23T16:26:15;32.20;54.00
13488;DHT22;6816;48.506;9.050;2022-07-23T16:29:17;32.10;54.00
13488;DHT22;6816;48.506;9.050;2022-07-23T16:32:18;31.90;53.90
13488;DHT22;6816;48.506;9.050;2022-07-23T16:35:19;31.90;54.70
13488;DHT22;6816;48.506;9.050;2022-07-23T16:38:19;31.80;54.40
13488;DHT22;6816;48.506;9.050;2022-07-23T16:41:22;31.70;54.60
13488;DHT22;6816;48.506;9.050;2022-07-23T16:44:22;31.60;54.70
13488;DHT22;6816;48.506;9.050;2022-07-23T16:47:23;31.50;54.50
13488;DHT22;6816;48.506;9.050;2022-07-23T16:50:24;31.50;54.70
13488;DHT22;6816;48.506;9.050;2022-07-23T16:53:25;31.40;54.80
13488;DHT22;6816;48.506;9.050;2022-07-23T16:56:26;31.40;55.10
13488;DHT22;6816;48.506;9.050;2022-07-23T16:59:26;31.30;55.90
13488;DHT22;6816;48.506;9.050;2022-07-23T17:02:27;31.40;55.30
13488;DHT22;6816;48.506;9.050;2022-07-23T17:05:27;31.40;55.10
13488;DHT22;6816;48.506;9.050;2022-07-23T17:08:28;31.30;55.20
13488;DHT22;6816;48.506;9.050;2022-07-23T17:11:29;31.30;54.90
13488;DHT22;6816;48.506;9.050;2022-07-23T17:14:30;31.30;55.30
13488;DHT22;6816;48.506;9.050;2022-07-23T17:17:30;31.30;55.20
13488;DHT22;6816;48.506;9.050;2022-07-23T17:20:31;31.30;55.50
13488;DHT22;6816;48.506;9.050;2022-07-23T17:23:32;31.20;55.20
13488;DHT22;6816;48.506;9.050;2022-07-23T17:26:33;31.20;55.10
13488;DHT22;6816;48.506;9.050;2022-07-23T17:29:35;31.20;54.80
13488;DHT22;6816;48.506;9.050;2022-07-23T17:32:35;31.10;54.70
13488;DHT22;6816;48.506;9.050;2022-07-23T17:35:36;31.10;54.70
13488;DHT22;6816;48.506;9.050;2022-07-23T17:38:38;31.10;54.90
13488;DHT22;6816;48.506;9.050;2022-07-23T17:41:39;31.10;54.80
13488;DHT22;6816;48.506;9.050;2022-07-23T17:44:47;31.10;55.10
13488;DHT22;6816;48.506;9.050;2022-07-23T17:47:47;31.00;55.30
13488;DHT22;6816;48.506;9.050;2022-07-23T17:50:48;31.00;54.90
13488;DHT22;6816;48.506;9.050;2022-07-23T17:53:49;30.90;54.60
13488;DHT22;6816;48.506;9.050;2022-07-23T17:56:49;30.90;54.40
13488;DHT22;6816;48.506;9.050;2022-07-23T17:59:50;30.80;54.80
13488;DHT22;6816;48.506;9.050;2022-07-23T18:02:51;30.80;55.00
13488;DHT22;6816;48.506;9.050;2022-07-23T18:05:51;30.70;54.90
13488;DHT22;6816;48.506;9.050;2022-07-23T18:08:52;30.70;55.10
13488;DHT22;6816;48.506;9.050;2022-07-23T18:11:53;30.60;55.40
13488;DHT22;6816;48.506;9.050;2022-07-23T18:15:05;30.60;55.40
13488;DHT22;6816;48.506;9.050;2022-07-23T18:18:06;30.50;54.40
13488;DHT22;6816;48.506;9.050;2022-07-23T18:21:06;30.40;55.60
13488;DHT22;6816;48.506;9.050;2022-07-23T18:24:07;30.30;55.60
13488;DHT22;6816;48.506;9.050;2022-07-23T18:27:08;30.20;55.80
13488;DHT22;6816;48.506;9.050;2022-07-23T18:30:09;30.20;55.90
13488;DHT22;6816;48.506;9.050;2022-07-23T18:33:12;30.10;55.90
13488;DHT22;6816;48.506;9.050;2022-07-23T18:36:13;30.00;56.10
13488;DHT22;6816;48.506;9.050;2022-07-23T18:39:13;29.90;56.60
13488;DHT22;6816;48.506;9.050;2022-07-23T18:42:15;29.90;56.50
13488;DHT22;6816;48.506;9.050;2022-07-23T18:45:15;29.80;57.30
13488;DHT22;6816;48.506;9.050;2022-07-23T18:48:16;29.70;56.60
13488;DHT22;6816;48.506;9.050;2022-07-23T18:51:17;29.70;56.90
13488;DHT22;6816;48.506;9.050;2022-07-23T18:54:18;29.60;57.10
13488;DHT22;6816;48.506;9.050;2022-07-23T18:57:18;29.60;57.20
13488;DHT22;6816;48.506;9.050;2022-07-23T19:00:19;29.50;57.40
13488;DHT22;6816;48.506;9.050;2022-07-23T19:03:20;29.50;57.60
13488;DHT22;6816;48.506;9.050;2022-07-23T19:06:21;29.40;57.80
13488;DHT22;6816;48.506;9.050;2022-07-23T19:09:22;29.40;58.10
13488;DHT22;6816;48.506;9.050;2022-07-23T19:12:22;29.30;58.30
13488;DHT22;6816;48.506;9.050;2022-07-23T19:15:23;29.20;58.30
13488;DHT22;6816;48.506;9.050;2022-07-23T19:18:24;29.10;58.40
13488;DHT22;6816;48.506;9.050;2022-07-23T19:21:25;29.10;58.30
13488;DHT22;6816;48.506;9.050;2022-07-23T19:24:25;29.00;58.50
13488;DHT22;6816;48.506;9.050;2022-07-23T19:27:26;29.00;58.70
13488;DHT22;6816;48.506;9.050;2022-07-23T19:30:27;28.90;58.80
13488;DHT22;6816;48.506;9.050;2022-07-23T19:33:28;28.80;58.90
13488;DHT22;6816;48.506;9.050;2022-07-23T19:36:28;28.80;59.00
13488;DHT22;6816;48.506;9.050;2022-07-23T19:39:29;28.70;58.90
13488;DHT22;6816;48.506;9.050;2022-07-23T19:42:31;28.60;59.00
13488;DHT22;6816;48.506;9.050;2022-07-23T19:45:32;28.60;59.20
13488;DHT22;6816;48.506;9.050;2022-07-23T19:48:32;28.50;59.30
13488;DHT22;6816;48.506;9.050;2022-07-23T19:51:33;28.50;59.50
13488;DHT22;6816;48.506;9.050;2022-07-23T19:54:34;28.40;60.10
13488;DHT22;6816;48.506;9.050;2022-07-23T19:57:36;28.40;59.70